Bluewell, West Virginia
Current Conditions -  °F | °C
As of 1:52 PM on Thursday 23 Oct 2014 (Local Time) from KBLF Reporting Station
Overcast Overcast  
Wind Chill: 43°   Ceiling: 1500
Heat Index: 47°   Visibility: 10mi
Dew Point: 38°   Wind: 8mph
Humidity: 71%   Direction: 310°NW
Pressure: 30.14"   Gusts: NA
Location:  37.2994°N, 81.226°W
Report Text: KBLF 231752Z AUTO 31007KT 280V350 10SM OVC015 08/03 A3014 RMK AO2 SLP204 T00830033 10089 20056 56013
Loading
Personal Weather Stations






























Interactive Weather Map New forecast layout! Learn more

10-Day Weather Forecast

Advertisements
Track Severe Weather on mobile